Time;durP1;ratioP1;P1;durP2;ratioP2;P2;SDS_P1;SDS_P2;PMS_P1;PMS_P2;Temp;Humidity;BMP_temperature;BMP_pressure;BME280_temperature;BME280_humidity;BME280_pressure;Samples;Min_cycle;Max_cycle;Signal;HPM_P1;HPM_P2
2021/06/07 00:00:56;;;;;;;;;;;;;;;;;;5050370;28;19913;-69
2021/06/07 00:03:22;;;;;;;;;;;;;;;;;;5033427;28;19909;-69
2021/06/07 00:05:47;;;;;;;;;;;;;;;;;;5051050;28;19935;-70
2021/06/07 00:08:13;;;;;;;;;;;;;;;;;;5051229;28;20003;-70
2021/06/07 00:10:39;;;;;;;;;;;;;;;;;;5049687;28;20366;-70
2021/06/07 00:13:06;;;;;;;;;;;;;;;;;;5033114;28;19909;-70
2021/06/07 00:15:33;;;;;;;;;;;;;;;;;;5050854;28;20264;-69
2021/06/07 00:17:59;;;;;;;;;;;;;;;;;;5051150;28;19909;-69
2021/06/07 00:20:24;;;;;;;;;;;;;;;;;;5050213;28;19909;-69
2021/06/07 00:22:50;;;;;;;;;;;;;;;;;;5050879;28;19916;-70
2021/06/07 00:25:16;;;;;;;;;;;;;;;;;;5050501;28;19919;-69
2021/06/07 00:27:42;;;;;;;;;;;;;;;;;;5050689;28;19955;-70
2021/06/07 00:30:08;;;;;;;;;;;;;;;;;;5050107;28;20428;-69
2021/06/07 00:32:34;;;;;;;;;;;;;;;;;;5050882;28;19935;-68
2021/06/07 00:34:59;;;;;;;;;;;;;;;;;;5050557;28;19919;-69
2021/06/07 00:37:25;;;;;;;;;;;;;;;;;;5050966;28;19912;-69
2021/06/07 00:39:51;;;;;;;;;;;;;;;;;;5040861;28;20381;-69
2021/06/07 00:42:17;;;;;;;;;;;;;;;;;;5041176;28;20262;-69
2021/06/07 00:44:45;;;;;;;;;;;;;;;;;;5041787;28;19924;-69
2021/06/07 00:47:11;;;;;;;;;;;;;;;;;;5033891;28;20067;-69
2021/06/07 00:49:37;;;;;;;;;;;;;;;;;;5031049;28;20004;-69
2021/06/07 00:52:03;;;;;;;;;;;;;;;;;;5042474;28;20317;-68
2021/06/07 00:54:29;;;;;;;;;;;;;;;;;;5041120;28;20285;-69
2021/06/07 00:56:55;;;;;;;;;;;;;;;;;;5039552;28;19909;-69
2021/06/07 00:59:20;;;;;;;;;;;;;;;;;;5038176;28;19912;-70
2021/06/07 01:01:46;;;;;;;;;;;;;;;;;;5050518;28;19987;-70
2021/06/07 01:04:12;;;;;;;;;;;;;;;;;;5050140;28;19912;-69
2021/06/07 01:06:38;;;;;;;;;;;;;;;;;;5050674;28;19919;-69
2021/06/07 01:09:04;;;;;;;;;;;;;;;;;;5050402;28;19962;-69
2021/06/07 01:11:30;;;;;;;;;;;;;;;;;;5032318;28;19932;-69
2021/06/07 01:13:56;;;;;;;;;;;;;;;;;;5050105;28;19909;-69
2021/06/07 01:16:21;;;;;;;;;;;;;;;;;;5050363;28;19999;-69
2021/06/07 01:18:47;;;;;;;;;;;;;;;;;;5050606;28;19920;-70
2021/06/07 01:21:13;;;;;;;;;;;;;;;;;;5049517;28;20249;-69
2021/06/07 01:23:39;;;;;;;;;;;;;;;;;;5052023;28;19908;-70
2021/06/07 01:26:05;;;;;;;;;;;;;;;;;;5053858;28;19924;-70
2021/06/07 01:28:31;;;;;;;;;;;;;;;;;;5053856;28;19974;-70
2021/06/07 01:30:57;;;;;;;;;;;;;;;;;;5053005;28;19909;-70
2021/06/07 01:33:22;;;;;;;;;;;;;;;;;;5054060;28;20428;-70
2021/06/07 01:35:48;;;;;;;;;;;;;;;;;;5053136;28;20589;-70
2021/06/07 01:38:14;;;;;;;;;;;;;;;;;;5053733;28;19908;-70
2021/06/07 01:40:40;;;;;;;;;;;;;;;;;;5052874;28;19909;-70
2021/06/07 01:43:06;;;;;;;;;;;;;;;;;;5035785;28;19913;-69
2021/06/07 01:45:32;;;;;;;;;;;;;;;;;;5053395;28;19909;-70
2021/06/07 01:47:57;;;;;;;;;;;;;;;;;;5053845;28;19913;-70
2021/06/07 01:50:23;;;;;;;;;;;;;;;;;;5052635;28;20399;-69
2021/06/07 01:52:49;;;;;;;;;;;;;;;;;;5053415;28;20233;-68
2021/06/07 01:55:15;;;;;;;;;;;;;;;;;;5053532;28;19969;-69
2021/06/07 01:57:41;;;;;;;;;;;;;;;;;;5053169;28;19909;-69
2021/06/07 02:00:07;;;;;;;;;;;;;;;;;;5052350;28;19909;-69
2021/06/07 02:02:33;;;;;;;;;;;;;;;;;;5035161;28;19915;-69
2021/06/07 02:04:58;;;;;;;;;;;;;;;;;;5053332;28;19916;-69
2021/06/07 02:07:24;;;;;;;;;;;;;;;;;;5035651;28;20455;-70
2021/06/07 02:09:50;;;;;;;;;;;;;;;;;;5052430;28;19978;-70
2021/06/07 02:12:16;;;;;;;;;;;;;;;;;;5035280;28;19908;-69
2021/06/07 02:14:42;;;;;;;;;;;;;;;;;;5052815;28;19924;-69
2021/06/07 02:17:08;;;;;;;;;;;;;;;;;;5053111;28;20003;-69
2021/06/07 02:19:34;;;;;;;;;;;;;;;;;;5034289;28;20327;-69
2021/06/07 02:21:59;;;;;;;;;;;;;;;;;;5052725;28;20269;-69
2021/06/07 02:24:25;;;;;;;;;;;;;;;;;;5052719;28;19909;-69
2021/06/07 02:26:51;;;;;;;;;;;;;;;;;;5052777;28;19912;-69
2021/06/07 02:29:17;;;;;;;;;;;;;;;;;;5052138;28;20369;-69
2021/06/07 02:31:43;;;;;;;;;;;;;;;;;;5052644;28;19909;-69
2021/06/07 02:34:09;;;;;;;;;;;;;;;;;;5051743;28;19912;-69
2021/06/07 02:36:35;;;;;;;;;;;;;;;;;;5052504;28;19912;-68
2021/06/07 02:39:00;;;;;;;;;;;;;;;;;;5052549;28;19908;-68
2021/06/07 02:41:26;;;;;;;;;;;;;;;;;;5051818;28;19909;-69
2021/06/07 02:43:52;;;;;;;;;;;;;;;;;;5074685;22;19928;-69
2021/06/07 02:46:18;;;;;;;;;;;;;;;;;;5050926;28;19924;-70
2021/06/07 02:48:44;;;;;;;;;;;;;;;;;;5051698;28;19919;-70
2021/06/07 02:51:10;;;;;;;;;;;;;;;;;;5050782;28;20011;-70
2021/06/07 02:53:36;;;;;;;;;;;;;;;;;;5051753;28;20443;-69
2021/06/07 02:56:01;;;;;;;;;;;;;;;;;;5051848;28;20048;-69
2021/06/07 02:58:27;;;;;;;;;;;;;;;;;;5050927;28;20020;-68
2021/06/07 03:00:53;;;;;;;;;;;;;;;;;;5050775;28;19939;-70
2021/06/07 03:03:19;;;;;;;;;;;;;;;;;;5050725;28;20011;-69
2021/06/07 03:05:45;;;;;;;;;;;;;;;;;;5051853;28;20015;-68
2021/06/07 03:08:11;;;;;;;;;;;;;;;;;;5051519;28;20471;-69
2021/06/07 03:10:36;;;;;;;;;;;;;;;;;;5050729;28;19909;-69
2021/06/07 03:13:02;;;;;;;;;;;;;;;;;;5051401;28;19953;-70
2021/06/07 03:15:28;;;;;;;;;;;;;;;;;;5051450;28;19913;-70
2021/06/07 03:17:54;;;;;;;;;;;;;;;;;;5051287;28;19909;-70
2021/06/07 03:20:20;;;;;;;;;;;;;;;;;;5050692;28;19960;-70
2021/06/07 03:22:46;;;;;;;;;;;;;;;;;;5051249;28;19908;-68
2021/06/07 03:25:11;;;;;;;;;;;;;;;;;;5051364;28;20257;-68
2021/06/07 03:27:37;;;;;;;;;;;;;;;;;;5051281;28;19908;-70
2021/06/07 03:30:03;;;;;;;;;;;;;;;;;;5050688;28;19909;-69
2021/06/07 03:32:29;;;;;;;;;;;;;;;;;;5051455;28;20003;-68
2021/06/07 03:34:55;;;;;;;;;;;;;;;;;;5051115;28;19943;-70
2021/06/07 03:37:21;;;;;;;;;;;;;;;;;;5051289;28;19999;-70
2021/06/07 03:39:47;;;;;;;;;;;;;;;;;;5050281;28;19909;-71
2021/06/07 03:42:12;;;;;;;;;;;;;;;;;;5051159;28;19928;-72
2021/06/07 03:44:38;;;;;;;;;;;;;;;;;;5050837;28;20387;-70
2021/06/07 03:47:04;;;;;;;;;;;;;;;;;;5049993;28;19920;-68
2021/06/07 03:49:30;;;;;;;;;;;;;;;;;;5050100;28;20008;-69
2021/06/07 03:51:56;;;;;;;;;;;;;;;;;;5050998;28;19909;-68
2021/06/07 03:54:22;;;;;;;;;;;;;;;;;;5050849;28;20390;-70
2021/06/07 03:56:47;;;;;;;;;;;;;;;;;;5050577;28;19912;-68
2021/06/07 03:59:14;;;;;;;;;;;;;;;;;;5049898;28;20004;-70
2021/06/07 04:01:40;;;;;;;;;;;;;;;;;;5050592;28;19916;-69
2021/06/07 04:04:06;;;;;;;;;;;;;;;;;;5049342;28;19908;-70
2021/06/07 04:06:32;;;;;;;;;;;;;;;;;;5050512;28;20008;-68
2021/06/07 04:08:59;;;;;;;;;;;;;;;;;;5042510;28;19914;-70
2021/06/07 04:11:26;;;;;;;;;;;;;;;;;;5030143;28;19910;-70
2021/06/07 04:13:52;;;;;;;;;;;;;;;;;;5030490;28;19913;-69
2021/06/07 04:16:18;;;;;;;;;;;;;;;;;;5030483;28;19913;-70
2021/06/07 04:18:44;;;;;;;;;;;;;;;;;;5012525;28;19909;-72
2021/06/07 04:21:09;;;;;;;;;;;;;;;;;;5029544;28;19910;-69
2021/06/07 04:23:35;;;;;;;;;;;;;;;;;;5046280;28;20538;-58
2021/06/07 04:26:01;;;;;;;;;;;;;;;;;;5049606;28;19971;-54
2021/06/07 04:28:27;;;;;;;;;;;;;;;;;;5050087;28;19909;-58
2021/06/07 04:30:53;;;;;;;;;;;;;;;;;;5049303;28;20276;-56
2021/06/07 04:33:19;;;;;;;;;;;;;;;;;;5048533;28;19912;-54
2021/06/07 04:35:45;;;;;;;;;;;;;;;;;;5049836;28;19913;-57
2021/06/07 04:38:11;;;;;;;;;;;;;;;;;;5042645;28;19925;-59
2021/06/07 04:40:36;;;;;;;;;;;;;;;;;;5045851;28;19913;-55
2021/06/07 04:43:02;;;;;;;;;;;;;;;;;;5049143;28;20261;-54
2021/06/07 04:45:28;;;;;;;;;;;;;;;;;;5049759;28;20388;-59
2021/06/07 04:47:54;;;;;;;;;;;;;;;;;;5049822;28;20361;-53
2021/06/07 04:50:20;;;;;;;;;;;;;;;;;;5048987;28;19944;-54
2021/06/07 04:53:01;;;;;;;;;;;;;;;;;;5043371;28;19920;-57
2021/06/07 04:55:27;;;;;;;;;;;;;;;;;;5050215;28;20375;-71
2021/06/07 04:57:53;;;;;;;;;;;;;;;;;;5048850;28;19917;-68
2021/06/07 05:00:19;;;;;;;;;;;;;;;;;;5052482;28;19916;-71
2021/06/07 05:02:45;;;;;;;;;;;;;;;;;;5052597;28;19956;-71
2021/06/07 05:05:10;;;;;;;;;;;;;;;;;;5052451;28;19992;-70
2021/06/07 05:07:36;;;;;;;;;;;;;;;;;;5053123;28;20343;-69
2021/06/07 05:10:02;;;;;;;;;;;;;;;;;;5034245;28;19915;-71
2021/06/07 05:12:28;;;;;;;;;;;;;;;;;;5053358;28;19940;-71
2021/06/07 05:14:54;;;;;;;;;;;;;;;;;;5052499;28;19956;-73
2021/06/07 05:17:22;;;;;;;;;;;;;;;;;;5051523;28;19982;-71
2021/06/07 05:19:49;;;;;;;;;;;;;;;;;;5048621;28;19943;-71
2021/06/07 05:22:15;;;;;;;;;;;;;;;;;;5052859;28;19970;-71
2021/06/07 05:24:41;;;;;;;;;;;;;;;;;;5053381;28;19912;-71
2021/06/07 05:27:07;;;;;;;;;;;;;;;;;;5035319;28;20003;-71
2021/06/07 05:29:33;;;;;;;;;;;;;;;;;;5050115;28;20322;-70
2021/06/07 05:31:59;;;;;;;;;;;;;;;;;;5052277;28;19951;-70
2021/06/07 05:34:25;;;;;;;;;;;;;;;;;;5052136;28;19909;-70
2021/06/07 05:36:50;;;;;;;;;;;;;;;;;;5045148;28;20036;-70
2021/06/07 05:39:19;;;;;;;;;;;;;;;;;;5050016;28;19916;-72
2021/06/07 05:41:45;;;;;;;;;;;;;;;;;;5052030;28;19944;-71
2021/06/07 05:44:11;;;;;;;;;;;;;;;;;;5051933;28;20380;-72
2021/06/07 05:46:37;;;;;;;;;;;;;;;;;;5052317;28;19916;-71
2021/06/07 05:49:03;;;;;;;;;;;;;;;;;;5052554;28;19948;-70
2021/06/07 05:51:28;;;;;;;;;;;;;;;;;;5052191;28;19912;-71
2021/06/07 05:53:54;;;;;;;;;;;;;;;;;;5052181;28;20058;-71
2021/06/07 05:56:20;;;;;;;;;;;;;;;;;;5052675;28;19937;-72
2021/06/07 05:58:46;;;;;;;;;;;;;;;;;;5052739;28;20382;-71
2021/06/07 06:01:12;;;;;;;;;;;;;;;;;;5051804;28;19944;-71
2021/06/07 06:03:38;;;;;;;;;;;;;;;;;;5051459;28;19913;-70
2021/06/07 06:06:04;;;;;;;;;;;;;;;;;;5034325;28;19904;-70
2021/06/07 06:08:30;;;;;;;;;;;;;;;;;;5051746;28;19913;-71
2021/06/07 06:10:56;;;;;;;;;;;;;;;;;;5051535;28;19905;-71
2021/06/07 06:13:22;;;;;;;;;;;;;;;;;;5052297;28;19909;-71
2021/06/07 06:15:48;;;;;;;;;;;;;;;;;;5041621;28;20344;-69
2021/06/07 06:18:13;;;;;;;;;;;;;;;;;;5032019;28;19916;-71
2021/06/07 06:20:39;;;;;;;;;;;;;;;;;;5031597;28;19916;-70
2021/06/07 06:23:05;;;;;;;;;;;;;;;;;;5026041;28;19962;-69
2021/06/07 06:25:31;;;;;;;;;;;;;;;;;;5034292;28;19920;-71
2021/06/07 06:27:57;;;;;;;;;;;;;;;;;;5052081;28;19950;-71
2021/06/07 06:30:23;;;;;;;;;;;;;;;;;;5051342;28;19909;-70
2021/06/07 06:32:49;;;;;;;;;;;;;;;;;;5052486;28;19904;-70
2021/06/07 06:35:15;;;;;;;;;;;;;;;;;;5037772;28;20498;-69
2021/06/07 06:37:43;;;;;;;;;;;;;;;;;;5032149;28;19913;-69
2021/06/07 06:40:09;;;;;;;;;;;;;;;;;;5039918;28;19917;-70
2021/06/07 06:42:35;;;;;;;;;;;;;;;;;;5047893;28;20414;-70
2021/06/07 06:45:01;;;;;;;;;;;;;;;;;;5033166;28;19928;-69
2021/06/07 06:47:27;;;;;;;;;;;;;;;;;;5040604;28;19913;-70
2021/06/07 06:49:53;;;;;;;;;;;;;;;;;;5033412;28;19963;-71
2021/06/07 06:52:19;;;;;;;;;;;;;;;;;;5031470;28;20385;-72
2021/06/07 06:54:45;;;;;;;;;;;;;;;;;;5031630;28;19936;-71
2021/06/07 06:57:11;;;;;;;;;;;;;;;;;;5031626;28;19913;-71
2021/06/07 06:59:36;;;;;;;;;;;;;;;;;;5033132;28;20340;-70
2021/06/07 07:02:02;;;;;;;;;;;;;;;;;;5051092;28;20054;-71
2021/06/07 07:04:28;;;;;;;;;;;;;;;;;;5050101;28;19992;-71
2021/06/07 07:06:54;;;;;;;;;;;;;;;;;;5051434;28;19909;-71
2021/06/07 07:09:20;;;;;;;;;;;;;;;;;;5050910;28;19954;-71
2021/06/07 07:11:46;;;;;;;;;;;;;;;;;;5051256;28;19916;-70
2021/06/07 07:14:12;;;;;;;;;;;;;;;;;;5051423;28;20294;-68
2021/06/07 07:16:37;;;;;;;;;;;;;;;;;;5032735;28;19913;-72
2021/06/07 07:19:03;;;;;;;;;;;;;;;;;;5038747;28;20254;-71
2021/06/07 07:21:29;;;;;;;;;;;;;;;;;;5041530;28;20287;-70
2021/06/07 07:23:55;;;;;;;;;;;;;;;;;;5041049;28;19932;-71
2021/06/07 07:26:21;;;;;;;;;;;;;;;;;;5039861;28;19919;-70
2021/06/07 07:28:47;;;;;;;;;;;;;;;;;;5041545;28;19935;-70
2021/06/07 07:31:13;;;;;;;;;;;;;;;;;;5039468;28;19909;-72
2021/06/07 07:33:39;;;;;;;;;;;;;;;;;;5022280;28;19959;-70
2021/06/07 07:36:05;;;;;;;;;;;;;;;;;;5041257;28;19921;-72
2021/06/07 07:38:31;;;;;;;;;;;;;;;;;;5021015;28;19932;-73
2021/06/07 07:40:57;;;;;;;;;;;;;;;;;;5037720;28;19909;-72
2021/06/07 07:43:23;;;;;;;;;;;;;;;;;;5035232;28;19991;-70
2021/06/07 07:45:48;;;;;;;;;;;;;;;;;;5047994;28;19916;-70
2021/06/07 07:48:14;;;;;;;;;;;;;;;;;;5033310;28;20070;-70
2021/06/07 07:50:40;;;;;;;;;;;;;;;;;;5050128;28;19912;-70
2021/06/07 07:53:06;;;;;;;;;;;;;;;;;;5050434;28;19979;-70
2021/06/07 07:55:32;;;;;;;;;;;;;;;;;;5033104;28;19935;-71
2021/06/07 07:57:58;;;;;;;;;;;;;;;;;;5051172;28;19915;-71
2021/06/07 08:00:24;;;;;;;;;;;;;;;;;;5038610;28;19912;-71
2021/06/07 08:02:50;;;;;;;;;;;;;;;;;;5032838;28;20055;-72
2021/06/07 08:05:16;;;;;;;;;;;;;;;;;;5050748;28;20037;-72
2021/06/07 08:07:41;;;;;;;;;;;;;;;;;;5050604;28;20015;-71
2021/06/07 08:10:07;;;;;;;;;;;;;;;;;;5049942;28;19915;-70
2021/06/07 08:12:33;;;;;;;;;;;;;;;;;;5050535;28;19916;-70
2021/06/07 08:14:59;;;;;;;;;;;;;;;;;;5050367;28;20015;-71
2021/06/07 08:17:25;;;;;;;;;;;;;;;;;;5032734;28;19908;-69
2021/06/07 08:19:51;;;;;;;;;;;;;;;;;;5050125;28;19946;-71
2021/06/07 08:22:17;;;;;;;;;;;;;;;;;;5050913;28;19913;-69
2021/06/07 08:24:42;;;;;;;;;;;;;;;;;;5050386;28;19909;-72
2021/06/07 08:27:08;;;;;;;;;;;;;;;;;;5050211;28;20322;-72
2021/06/07 08:29:34;;;;;;;;;;;;;;;;;;5049778;28;19909;-72
2021/06/07 08:32:00;;;;;;;;;;;;;;;;;;5051563;28;19913;-72
2021/06/07 08:34:26;;;;;;;;;;;;;;;;;;5061476;28;20356;-70
2021/06/07 08:36:52;;;;;;;;;;;;;;;;;;5062267;28;19917;-70
2021/06/07 08:39:19;;;;;;;;;;;;;;;;;;5062031;28;20360;-70
2021/06/07 08:41:44;;;;;;;;;;;;;;;;;;5060275;28;19968;-72
2021/06/07 08:44:10;;;;;;;;;;;;;;;;;;5063195;22;19948;-75
2021/06/07 08:46:36;;;;;;;;;;;;;;;;;;5061398;28;20549;-75
2021/06/07 08:49:21;;;;;;;;;;;;;;;;;;5079941;28;19924;-83
2021/06/07 08:51:49;;;;;;;;;;;;;;;;;;5081016;28;19965;-76
2021/06/07 08:54:15;;;;;;;;;;;;;;;;;;5084994;28;19981;-77
2021/06/07 08:56:43;;;;;;;;;;;;;;;;;;5082500;28;20218;-80
2021/06/07 08:59:24;;;;;;;;;;;;;;;;;;5065625;28;19909;-76
2021/06/07 09:01:54;;;;;;;;;;;;;;;;;;5081181;28;20019;-77
2021/06/07 09:04:26;;;;;;;;;;;;;;;;;;5080943;28;20000;-77
2021/06/07 09:06:52;;;;;;;;;;;;;;;;;;5079040;28;19944;-76
2021/06/07 09:09:18;;;;;;;;;;;;;;;;;;5077863;28;19909;-78
2021/06/07 09:11:44;;;;;;;;;;;;;;;;;;5078527;28;20019;-77
2021/06/07 09:14:10;;;;;;;;;;;;;;;;;;5081641;28;19913;-75
2021/06/07 09:16:36;;;;;;;;;;;;;;;;;;5080689;28;19920;-78
2021/06/07 09:19:02;;;;;;;;;;;;;;;;;;5062102;28;19913;-76
2021/06/07 09:21:30;;;;;;;;;;;;;;;;;;5081334;28;19955;-78
2021/06/07 09:23:58;;;;;;;;;;;;;;;;;;5082295;28;19909;-82
2021/06/07 09:26:25;;;;;;;;;;;;;;;;;;5081941;28;20416;-77
2021/06/07 09:28:51;;;;;;;;;;;;;;;;;;5080364;28;20340;-76
2021/06/07 09:31:17;;;;;;;;;;;;;;;;;;5060949;28;19955;-76
2021/06/07 09:33:47;;;;;;;;;;;;;;;;;;5078923;28;19928;-76
2021/06/07 09:36:13;;;;;;;;;;;;;;;;;;5079918;28;19912;-78
2021/06/07 09:38:39;;;;;;;;;;;;;;;;;;5062381;28;19913;-78
2021/06/07 09:41:04;;;;;;;;;;;;;;;;;;5063989;28;19916;-78
2021/06/07 09:43:30;;;;;;;;;;;;;;;;;;5079608;28;19915;-77
2021/06/07 09:45:56;;;;;;;;;;;;;;;;;;5084547;28;19916;-77
2021/06/07 09:48:24;;;;;;;;;;;;;;;;;;5079851;28;19919;-78
2021/06/07 09:50:50;;;;;;;;;;;;;;;;;;5083753;28;19913;-76
2021/06/07 09:53:16;;;;;;;;;;;;;;;;;;5081234;28;19909;-79
2021/06/07 09:55:42;;;;;;;;;;;;;;;;;;5083309;28;19920;-77
2021/06/07 09:58:08;;;;;;;;;;;;;;;;;;5060821;28;19909;-78
2021/06/07 10:00:34;;;;;;;;;;;;;;;;;;5079475;28;19920;-78
2021/06/07 10:02:59;;;;;;;;;;;;;;;;;;5079777;28;19913;-76
2021/06/07 10:05:25;;;;;;;;;;;;;;;;;;5080421;28;19935;-75
2021/06/07 10:07:54;;;;;;;;;;;;;;;;;;5077953;28;20519;-76
2021/06/07 10:10:20;;;;;;;;;;;;;;;;;;5077647;28;20007;-78
2021/06/07 10:12:46;;;;;;;;;;;;;;;;;;5079849;28;20002;-78
2021/06/07 10:15:12;;;;;;;;;;;;;;;;;;5063354;28;19986;-77
2021/06/07 10:17:38;;;;;;;;;;;;;;;;;;5064303;28;19932;-77
2021/06/07 10:22:32;;;;;;;;;;;;;;;;;;5082962;28;19926;-76
2021/06/07 10:24:58;;;;;;;;;;;;;;;;;;5081389;28;19976;-78
2021/06/07 10:27:30;;;;;;;;;;;;;;;;;;5081535;28;19931;-81
2021/06/07 10:30:23;;;;;;;;;;;;;;;;;;5077250;28;20485;-76
2021/06/07 10:32:49;;;;;;;;;;;;;;;;;;5078648;28;19943;-76
2021/06/07 10:35:24;;;;;;;;;;;;;;;;;;5080760;28;19945;-80
2021/06/07 10:37:50;;;;;;;;;;;;;;;;;;5061838;28;20007;-76
2021/06/07 10:40:16;;;;;;;;;;;;;;;;;;5080734;28;19981;-76
2021/06/07 10:42:42;;;;;;;;;;;;;;;;;;5078089;28;19937;-77
2021/06/07 10:45:08;;;;;;;;;;;;;;;;;;5090402;22;20085;-51
2021/06/07 10:47:33;;;;;;;;;;;;;;;;;;5054391;28;20021;-47
2021/06/07 10:49:59;;;;;;;;;;;;;;;;;;5071421;28;19923;-49
2021/06/07 10:52:25;;;;;;;;;;;;;;;;;;5075657;28;20049;-67
2021/06/07 10:54:51;;;;;;;;;;;;;;;;;;5074364;28;20449;-67
2021/06/07 10:57:17;;;;;;;;;;;;;;;;;;5059594;28;19920;-67
2021/06/07 10:59:43;;;;;;;;;;;;;;;;;;5075239;28;19938;-68
2021/06/07 11:02:09;;;;;;;;;;;;;;;;;;5076834;28;19930;-67
2021/06/07 11:04:35;;;;;;;;;;;;;;;;;;5074432;28;19988;-67
2021/06/07 11:07:00;;;;;;;;;;;;;;;;;;5075614;28;20000;-67
2021/06/07 11:09:26;;;;;;;;;;;;;;;;;;5055217;28;20072;-67
2021/06/07 11:11:52;;;;;;;;;;;;;;;;;;5075993;28;19946;-67
2021/06/07 11:14:20;;;;;;;;;;;;;;;;;;5075891;28;20087;-67
2021/06/07 11:16:46;;;;;;;;;;;;;;;;;;5076089;28;19946;-67
2021/06/07 11:19:12;;;;;;;;;;;;;;;;;;5075486;28;20043;-67
2021/06/07 11:21:38;;;;;;;;;;;;;;;;;;5074756;28;19929;-67
2021/06/07 11:24:04;;;;;;;;;;;;;;;;;;5072832;28;20036;-71
2021/06/07 11:26:30;;;;;;;;;;;;;;;;;;5072029;28;19932;-68
2021/06/07 11:28:56;;;;;;;;;;;;;;;;;;5071597;28;19922;-67
2021/06/07 11:31:22;;;;;;;;;;;;;;;;;;5071223;28;19928;-67
2021/06/07 11:33:48;;;;;;;;;;;;;;;;;;5071579;28;19930;-68
2021/06/07 11:36:14;;;;;;;;;;;;;;;;;;5071598;28;20372;-68
2021/06/07 11:38:44;;;;;;;;;;;;;;;;;;5071364;28;19908;-68
2021/06/07 11:41:10;;;;;;;;;;;;;;;;;;5071390;28;19908;-68
2021/06/07 11:43:36;;;;;;;;;;;;;;;;;;5072155;28;20292;-67
2021/06/07 11:46:02;;;;;;;;;;;;;;;;;;5072841;28;20011;-67
2021/06/07 11:48:28;;;;;;;;;;;;;;;;;;5072626;28;19905;-68
2021/06/07 11:50:54;;;;;;;;;;;;;;;;;;5072085;28;19913;-67
2021/06/07 11:53:21;;;;;;;;;;;;;;;;;;5072738;28;20364;-67
2021/06/07 11:55:48;;;;;;;;;;;;;;;;;;5072968;28;20430;-67
2021/06/07 11:58:14;;;;;;;;;;;;;;;;;;5073670;28;19913;-68
2021/06/07 12:00:40;;;;;;;;;;;;;;;;;;5072401;28;19982;-68
2021/06/07 12:03:06;;;;;;;;;;;;;;;;;;5074227;28;19940;-67
2021/06/07 12:05:32;;;;;;;;;;;;;;;;;;5076185;28;19912;-67
2021/06/07 12:07:58;;;;;;;;;;;;;;;;;;5075177;28;19908;-67
2021/06/07 12:10:23;;;;;;;;;;;;;;;;;;5075237;28;19912;-67
2021/06/07 12:12:49;;;;;;;;;;;;;;;;;;5076232;28;20003;-67
2021/06/07 12:15:15;;;;;;;;;;;;;;;;;;5072298;28;21900;-68
2021/06/07 12:17:41;;;;;;;;;;;;;;;;;;5066691;28;19912;-67
2021/06/07 12:20:07;;;;;;;;;;;;;;;;;;5072347;28;20003;-67
2021/06/07 12:22:33;;;;;;;;;;;;;;;;;;5073528;28;19951;-67
2021/06/07 12:25:01;;;;;;;;;;;;;;;;;;5074176;28;19935;-67
2021/06/07 12:30:12;;;;;;;;;;;;;;;;;;5071858;28;19923;-67
2021/06/07 12:32:38;;;;;;;;;;;;;;;;;;5073510;28;20004;-67
2021/06/07 12:35:05;;;;;;;;;;;;;;;;;;5073150;28;19916;-68
2021/06/07 12:37:30;;;;;;;;;;;;;;;;;;5074253;28;19946;-68
2021/06/07 12:39:56;;;;;;;;;;;;;;;;;;5072582;28;19908;-68
2021/06/07 12:42:22;;;;;;;;;;;;;;;;;;5073147;28;20027;-67
2021/06/07 12:44:48;;;;;;;;;;;;;;;;;;5073141;28;19934;-67
2021/06/07 12:47:14;;;;;;;;;;;;;;;;;;5072733;28;19917;-67
2021/06/07 12:49:40;;;;;;;;;;;;;;;;;;5053880;28;19913;-67
2021/06/07 12:52:06;;;;;;;;;;;;;;;;;;5072515;28;19916;-67
2021/06/07 12:54:32;;;;;;;;;;;;;;;;;;5073321;28;19995;-67
2021/06/07 12:56:59;;;;;;;;;;;;;;;;;;5072835;28;19921;-68
2021/06/07 12:59:25;;;;;;;;;;;;;;;;;;5072266;28;19912;-67
2021/06/07 13:01:50;;;;;;;;;;;;;;;;;;5073401;28;20473;-67
2021/06/07 13:04:16;;;;;;;;;;;;;;;;;;5071900;28;19944;-67
2021/06/07 13:06:42;;;;;;;;;;;;;;;;;;5067569;28;19978;-67
2021/06/07 13:09:08;;;;;;;;;;;;;;;;;;5071319;28;20299;-67
2021/06/07 13:11:36;;;;;;;;;;;;;;;;;;5069616;28;20003;-67
2021/06/07 13:14:02;;;;;;;;;;;;;;;;;;5072557;28;19912;-67
2021/06/07 13:16:28;;;;;;;;;;;;;;;;;;5068811;28;19937;-68
2021/06/07 13:18:55;;;;;;;;;;;;;;;;;;5074594;28;19921;-67
2021/06/07 13:21:21;;;;;;;;;;;;;;;;;;5057516;28;19916;-68
2021/06/07 13:23:47;;;;;;;;;;;;;;;;;;5076056;28;20296;-68
2021/06/07 13:26:12;;;;;;;;;;;;;;;;;;5077533;28;19999;-68
2021/06/07 13:28:38;;;;;;;;;;;;;;;;;;5076537;28;19913;-68
2021/06/07 13:31:04;;;;;;;;;;;;;;;;;;5071553;28;19923;-67
2021/06/07 13:33:30;;;;;;;;;;;;;;;;;;5077580;28;19908;-67
2021/06/07 13:35:56;;;;;;;;;;;;;;;;;;5076975;28;19998;-67
2021/06/07 13:38:22;;;;;;;;;;;;;;;;;;5077599;28;19912;-67
2021/06/07 13:40:49;;;;;;;;;;;;;;;;;;5075816;28;19912;-67
2021/06/07 13:43:16;;;;;;;;;;;;;;;;;;5076640;28;19944;-67
2021/06/07 13:45:43;;;;;;;;;;;;;;;;;;5076575;28;19916;-67
2021/06/07 13:48:10;;;;;;;;;;;;;;;;;;5076404;28;20524;-67
2021/06/07 13:50:35;;;;;;;;;;;;;;;;;;5075914;28;19917;-67
2021/06/07 13:53:01;;;;;;;;;;;;;;;;;;5075339;28;20110;-67
2021/06/07 13:55:27;;;;;;;;;;;;;;;;;;5058598;28;19942;-67
2021/06/07 13:57:53;;;;;;;;;;;;;;;;;;5073813;28;20007;-67
2021/06/07 14:00:19;;;;;;;;;;;;;;;;;;5073006;28;19909;-67
2021/06/07 14:02:45;;;;;;;;;;;;;;;;;;5073614;28;19954;-67
2021/06/07 14:05:11;;;;;;;;;;;;;;;;;;5057100;28;19963;-68
2021/06/07 14:07:36;;;;;;;;;;;;;;;;;;5073588;28;20334;-67
2021/06/07 14:10:02;;;;;;;;;;;;;;;;;;5065011;28;20134;-67
2021/06/07 14:12:28;;;;;;;;;;;;;;;;;;5056292;28;19916;-67
2021/06/07 14:14:54;;;;;;;;;;;;;;;;;;5071970;28;19916;-66
2021/06/07 14:17:20;;;;;;;;;;;;;;;;;;5072443;28;19909;-67
2021/06/07 14:19:46;;;;;;;;;;;;;;;;;;5072013;28;19918;-68
2021/06/07 14:24:38;;;;;;;;;;;;;;;;;;5072457;28;19962;-67
2021/06/07 14:27:04;;;;;;;;;;;;;;;;;;5071963;28;20062;-67
2021/06/07 14:29:30;;;;;;;;;;;;;;;;;;5070891;28;19990;-68
2021/06/07 14:31:56;;;;;;;;;;;;;;;;;;5056899;28;19996;-67
2021/06/07 14:34:22;;;;;;;;;;;;;;;;;;5072703;28;20314;-67
2021/06/07 14:36:49;;;;;;;;;;;;;;;;;;5071891;28;19935;-68
2021/06/07 14:39:15;;;;;;;;;;;;;;;;;;5070995;28;19932;-67
2021/06/07 14:41:41;;;;;;;;;;;;;;;;;;5071387;28;19926;-67
2021/06/07 14:44:07;;;;;;;;;;;;;;;;;;5052087;28;19913;-68
2021/06/07 14:46:33;;;;;;;;;;;;;;;;;;5070276;28;19934;-67
2021/06/07 14:48:59;;;;;;;;;;;;;;;;;;5070413;28;19952;-67
2021/06/07 14:51:25;;;;;;;;;;;;;;;;;;5069772;28;19924;-67
2021/06/07 14:53:51;;;;;;;;;;;;;;;;;;5071114;28;19921;-67
2021/06/07 14:56:17;;;;;;;;;;;;;;;;;;5070688;28;20280;-68
2021/06/07 14:58:43;;;;;;;;;;;;;;;;;;5066540;28;19981;-67
2021/06/07 15:01:09;;;;;;;;;;;;;;;;;;5050055;28;20398;-67
2021/06/07 15:03:34;;;;;;;;;;;;;;;;;;5067844;28;19920;-68
2021/06/07 15:06:00;;;;;;;;;;;;;;;;;;5068465;28;19912;-68
2021/06/07 15:08:26;;;;;;;;;;;;;;;;;;5068396;28;19923;-60
2021/06/07 15:10:52;;;;;;;;;;;;;;;;;;5068217;28;20317;-64
2021/06/07 15:13:18;;;;;;;;;;;;;;;;;;5068562;28;19924;-66
2021/06/07 15:15:44;;;;;;;;;;;;;;;;;;5069170;28;20376;-68
2021/06/07 15:18:10;;;;;;;;;;;;;;;;;;5069213;28;19943;-68
2021/06/07 15:20:36;;;;;;;;;;;;;;;;;;5068309;28;19916;-68
2021/06/07 15:23:02;;;;;;;;;;;;;;;;;;5069068;28;19917;-67
2021/06/07 15:25:28;;;;;;;;;;;;;;;;;;5051221;28;19912;-67
2021/06/07 15:27:55;;;;;;;;;;;;;;;;;;5069012;28;20375;-67
2021/06/07 15:30:21;;;;;;;;;;;;;;;;;;5068020;28;19917;-67
2021/06/07 15:32:47;;;;;;;;;;;;;;;;;;5052254;28;19920;-67
2021/06/07 15:35:13;;;;;;;;;;;;;;;;;;5068332;28;20011;-67
2021/06/07 15:37:39;;;;;;;;;;;;;;;;;;5068474;28;20004;-67
2021/06/07 15:40:04;;;;;;;;;;;;;;;;;;5067251;28;19966;-68
2021/06/07 15:42:30;;;;;;;;;;;;;;;;;;5070239;28;19913;-68
2021/06/07 15:44:56;;;;;;;;;;;;;;;;;;5070808;28;20280;-67
2021/06/07 15:47:22;;;;;;;;;;;;;;;;;;5069556;28;20003;-67
2021/06/07 15:49:48;;;;;;;;;;;;;;;;;;5068115;28;19916;-68
2021/06/07 15:52:14;;;;;;;;;;;;;;;;;;5069406;28;20062;-68
2021/06/07 15:54:39;;;;;;;;;;;;;;;;;;5069392;28;19920;-68
2021/06/07 15:57:05;;;;;;;;;;;;;;;;;;5068799;28;20329;-68
2021/06/07 15:59:31;;;;;;;;;;;;;;;;;;5061625;28;19992;-70
2021/06/07 16:01:57;;;;;;;;;;;;;;;;;;5067382;28;19916;-68
2021/06/07 16:04:23;;;;;;;;;;;;;;;;;;5067959;28;19917;-68
2021/06/07 16:06:49;;;;;;;;;;;;;;;;;;5068129;28;19912;-68
2021/06/07 16:09:15;;;;;;;;;;;;;;;;;;5066898;28;19927;-68
2021/06/07 16:11:40;;;;;;;;;;;;;;;;;;5053866;28;19943;-68
2021/06/07 16:14:06;;;;;;;;;;;;;;;;;;5065806;28;19912;-68
2021/06/07 16:16:38;;;;;;;;;;;;;;;;;;5067286;28;19917;-68
2021/06/07 16:19:07;;;;;;;;;;;;;;;;;;5066736;28;19917;-66
2021/06/07 16:21:33;;;;;;;;;;;;;;;;;;5068953;28;19916;-68
2021/06/07 16:23:59;;;;;;;;;;;;;;;;;;5066462;28;19954;-68
2021/06/07 16:26:25;;;;;;;;;;;;;;;;;;5070085;28;19919;-68
2021/06/07 16:28:51;;;;;;;;;;;;;;;;;;5068995;28;19912;-67
2021/06/07 16:31:19;;;;;;;;;;;;;;;;;;5068933;28;19912;-68
2021/06/07 16:33:45;;;;;;;;;;;;;;;;;;5063458;28;20533;-68
2021/06/07 16:36:11;;;;;;;;;;;;;;;;;;5076105;22;20028;-81
2021/06/07 16:38:37;;;;;;;;;;;;;;;;;;5052756;28;20176;-81
2021/06/07 16:41:02;;;;;;;;;;;;;;;;;;5020884;28;19979;-83
2021/06/07 16:43:28;;;;;;;;;;;;;;;;;;5020652;28;19917;-82
2021/06/07 16:45:54;;;;;;;;;;;;;;;;;;5034512;23;19929;-71